sensor_id;sensor_type;location;lat;lon;timestamp;temperature;humidity
316;DHT22;14128;48.686;9.738;2023-12-22T12:32:23;8.40;1.40
316;DHT22;14128;48.686;9.738;2023-12-22T12:37:18;8.40;1.40
316;DHT22;14128;48.686;9.738;2023-12-22T12:39:46;8.40;1.40
316;DHT22;14128;48.686;9.738;2023-12-22T12:44:44;8.40;1.40
316;DHT22;14128;48.686;9.738;2023-12-22T12:49:40;8.50;1.40
316;DHT22;14128;48.686;9.738;2023-12-22T12:54:39;8.60;1.40
316;DHT22;14128;48.686;9.738;2023-12-22T12:57:06;8.50;1.40
316;DHT22;14128;48.686;9.738;2023-12-22T13:04:36;8.60;1.40
316;DHT22;14128;48.686;9.738;2023-12-22T13:07:04;8.60;1.40
316;DHT22;14128;48.686;9.738;2023-12-22T13:09:32;8.60;1.40
316;DHT22;14128;48.686;9.738;2023-12-22T13:11:59;8.50;1.40
316;DHT22;14128;48.686;9.738;2023-12-22T13:14:26;8.60;1.40
316;DHT22;14128;48.686;9.738;2023-12-22T13:16:56;8.50;1.40
316;DHT22;14128;48.686;9.738;2023-12-22T13:19:24;9.40;1.40
316;DHT22;14128;48.686;9.738;2023-12-22T13:21:52;9.50;1.40
316;DHT22;14128;48.686;9.738;2023-12-22T13:24:19;7.80;1.40
316;DHT22;14128;48.686;9.738;2023-12-22T13:26:46;7.70;1.40
316;DHT22;14128;48.686;9.738;2023-12-22T13:29:13;7.70;1.40
316;DHT22;14128;48.686;9.738;2023-12-22T13:31:41;7.80;1.40
316;DHT22;14128;48.686;9.738;2023-12-22T13:34:13;7.70;1.40
316;DHT22;14128;48.686;9.738;2023-12-22T13:36:41;7.80;1.40
316;DHT22;14128;48.686;9.738;2023-12-22T13:39:09;7.80;1.40
316;DHT22;14128;48.686;9.738;2023-12-22T13:41:38;7.80;1.40
316;DHT22;14128;48.686;9.738;2023-12-22T13:44:06;8.00;1.40
316;DHT22;14128;48.686;9.738;2023-12-22T13:46:33;7.90;1.40
316;DHT22;14128;48.686;9.738;2023-12-22T13:49:01;8.00;1.40
316;DHT22;14128;48.686;9.738;2023-12-22T13:51:38;8.10;1.40
316;DHT22;14128;48.686;9.738;2023-12-22T13:54:05;8.10;1.40
316;DHT22;14128;48.686;9.738;2023-12-22T13:56:33;8.10;1.40
316;DHT22;14128;48.686;9.738;2023-12-22T13:59:02;8.10;1.40
316;DHT22;14128;48.686;9.738;2023-12-22T14:01:29;8.30;1.40
316;DHT22;14128;48.686;9.738;2023-12-22T14:03:56;8.40;1.40
316;DHT22;14128;48.686;9.738;2023-12-22T14:06:24;8.50;1.40
316;DHT22;14128;48.686;9.738;2023-12-22T14:08:52;8.40;1.40
316;DHT22;14128;48.686;9.738;2023-12-22T14:11:19;8.60;1.40
316;DHT22;14128;48.686;9.738;2023-12-22T14:13:46;8.60;1.40
316;DHT22;14128;48.686;9.738;2023-12-22T14:16:13;8.70;1.40
316;DHT22;14128;48.686;9.738;2023-12-22T14:18:41;8.70;1.40
316;DHT22;14128;48.686;9.738;2023-12-22T14:21:08;8.80;1.40
316;DHT22;14128;48.686;9.738;2023-12-22T14:23:34;8.80;1.40
316;DHT22;14128;48.686;9.738;2023-12-22T14:26:03;8.90;1.40
316;DHT22;14128;48.686;9.738;2023-12-22T14:28:31;8.90;1.40
316;DHT22;14128;48.686;9.738;2023-12-22T14:30:57;8.90;1.40
316;DHT22;14128;48.686;9.738;2023-12-22T14:33:24;9.00;1.40
316;DHT22;14128;48.686;9.738;2023-12-22T14:35:51;9.00;1.40
316;DHT22;14128;48.686;9.738;2023-12-22T14:38:18;9.00;1.40
316;DHT22;14128;48.686;9.738;2023-12-22T14:40:45;9.00;1.40
316;DHT22;14128;48.686;9.738;2023-12-22T14:43:13;9.10;1.40
316;DHT22;14128;48.686;9.738;2023-12-22T14:45:40;9.10;1.40
316;DHT22;14128;48.686;9.738;2023-12-22T14:48:07;9.10;1.40
316;DHT22;14128;48.686;9.738;2023-12-22T14:50:33;9.20;1.40
316;DHT22;14128;48.686;9.738;2023-12-22T14:53:00;9.20;1.40
316;DHT22;14128;48.686;9.738;2023-12-22T14:55:27;9.20;1.40
316;DHT22;14128;48.686;9.738;2023-12-22T14:57:54;9.20;1.40
316;DHT22;14128;48.686;9.738;2023-12-22T15:00:22;9.30;1.40
316;DHT22;14128;48.686;9.738;2023-12-22T15:02:49;9.30;1.40
316;DHT22;14128;48.686;9.738;2023-12-22T15:05:17;9.40;1.40
316;DHT22;14128;48.686;9.738;2023-12-22T15:07:44;9.40;1.40
316;DHT22;14128;48.686;9.738;2023-12-22T15:10:11;9.40;1.40
316;DHT22;14128;48.686;9.738;2023-12-22T15:12:37;9.40;1.40
316;DHT22;14128;48.686;9.738;2023-12-22T15:15:08;9.40;1.40
316;DHT22;14128;48.686;9.738;2023-12-22T15:17:36;9.50;1.40
316;DHT22;14128;48.686;9.738;2023-12-22T15:20:04;9.50;1.40
316;DHT22;14128;48.686;9.738;2023-12-22T15:22:32;9.50;1.40
316;DHT22;14128;48.686;9.738;2023-12-22T15:24:59;9.50;1.40
316;DHT22;14128;48.686;9.738;2023-12-22T15:27:26;9.30;1.40
316;DHT22;14128;48.686;9.738;2023-12-22T15:29:53;9.40;1.40
316;DHT22;14128;48.686;9.738;2023-12-22T15:32:20;9.40;1.40
316;DHT22;14128;48.686;9.738;2023-12-22T15:34:48;10.20;1.40
316;DHT22;14128;48.686;9.738;2023-12-22T15:37:15;10.30;1.40
316;DHT22;14128;48.686;9.738;2023-12-22T15:39:42;10.30;1.40
316;DHT22;14128;48.686;9.738;2023-12-22T15:42:09;10.40;1.40
316;DHT22;14128;48.686;9.738;2023-12-22T15:44:39;10.50;1.40
316;DHT22;14128;48.686;9.738;2023-12-22T15:47:06;10.60;1.40
316;DHT22;14128;48.686;9.738;2023-12-22T15:49:36;10.50;1.40
316;DHT22;14128;48.686;9.738;2023-12-22T15:52:05;10.60;1.40
316;DHT22;14128;48.686;9.738;2023-12-22T15:54:33;11.00;1.40
316;DHT22;14128;48.686;9.738;2023-12-22T15:57:00;11.10;1.40
316;DHT22;14128;48.686;9.738;2023-12-22T15:59:27;11.10;1.40
316;DHT22;14128;48.686;9.738;2023-12-22T16:01:54;11.10;1.40
316;DHT22;14128;48.686;9.738;2023-12-22T16:04:21;11.20;1.40
316;DHT22;14128;48.686;9.738;2023-12-22T16:06:48;11.00;1.40
316;DHT22;14128;48.686;9.738;2023-12-22T16:09:16;11.00;1.40
316;DHT22;14128;48.686;9.738;2023-12-22T16:11:43;11.00;1.40
316;DHT22;14128;48.686;9.738;2023-12-22T16:14:10;11.10;1.40
316;DHT22;14128;48.686;9.738;2023-12-22T16:16:36;11.10;1.40
316;DHT22;14128;48.686;9.738;2023-12-22T16:19:03;11.10;1.40
316;DHT22;14128;48.686;9.738;2023-12-22T16:21:30;11.10;1.40
316;DHT22;14128;48.686;9.738;2023-12-22T16:23:57;11.20;1.40
316;DHT22;14128;48.686;9.738;2023-12-22T16:26:26;11.20;1.40
316;DHT22;14128;48.686;9.738;2023-12-22T16:28:53;11.20;1.40
316;DHT22;14128;48.686;9.738;2023-12-22T16:31:20;11.20;1.40
316;DHT22;14128;48.686;9.738;2023-12-22T16:33:47;11.20;1.40
316;DHT22;14128;48.686;9.738;2023-12-22T16:36:14;11.20;1.40
316;DHT22;14128;48.686;9.738;2023-12-22T16:38:41;11.20;1.40
316;DHT22;14128;48.686;9.738;2023-12-22T16:41:07;11.20;1.40
316;DHT22;14128;48.686;9.738;2023-12-22T16:43:36;11.20;1.40
316;DHT22;14128;48.686;9.738;2023-12-22T16:46:03;11.20;1.40
316;DHT22;14128;48.686;9.738;2023-12-22T16:48:30;11.20;1.40
316;DHT22;14128;48.686;9.738;2023-12-22T16:50:57;11.20;1.40
316;DHT22;14128;48.686;9.738;2023-12-22T16:53:24;11.20;1.40
316;DHT22;14128;48.686;9.738;2023-12-22T16:55:52;11.20;1.40
316;DHT22;14128;48.686;9.738;2023-12-22T16:58:18;11.30;1.40
316;DHT22;14128;48.686;9.738;2023-12-22T17:00:47;11.30;1.40
316;DHT22;14128;48.686;9.738;2023-12-22T17:03:14;11.30;1.40
316;DHT22;14128;48.686;9.738;2023-12-22T17:05:41;11.30;1.40
316;DHT22;14128;48.686;9.738;2023-12-22T17:08:08;11.30;1.40
316;DHT22;14128;48.686;9.738;2023-12-22T17:10:36;11.30;1.40
316;DHT22;14128;48.686;9.738;2023-12-22T17:13:03;11.30;1.40
316;DHT22;14128;48.686;9.738;2023-12-22T17:15:30;11.30;1.40
316;DHT22;14128;48.686;9.738;2023-12-22T17:17:58;11.30;1.40
316;DHT22;14128;48.686;9.738;2023-12-22T17:20:25;11.30;1.40
316;DHT22;14128;48.686;9.738;2023-12-22T17:22:52;11.40;1.40
316;DHT22;14128;48.686;9.738;2023-12-22T17:25:19;11.30;1.40
316;DHT22;14128;48.686;9.738;2023-12-22T17:27:45;11.30;1.40
316;DHT22;14128;48.686;9.738;2023-12-22T17:30:12;11.30;1.40
316;DHT22;14128;48.686;9.738;2023-12-22T17:32:39;11.30;1.40
316;DHT22;14128;48.686;9.738;2023-12-22T17:35:08;11.30;1.40
316;DHT22;14128;48.686;9.738;2023-12-22T17:37:34;11.60;1.40
316;DHT22;14128;48.686;9.738;2023-12-22T17:40:01;11.60;1.40
316;DHT22;14128;48.686;9.738;2023-12-22T17:42:29;11.60;1.40
316;DHT22;14128;48.686;9.738;2023-12-22T17:44:55;11.70;1.40
316;DHT22;14128;48.686;9.738;2023-12-22T17:47:22;11.70;1.40
316;DHT22;14128;48.686;9.738;2023-12-22T17:49:49;11.70;1.40
316;DHT22;14128;48.686;9.738;2023-12-22T17:52:17;11.70;1.40
316;DHT22;14128;48.686;9.738;2023-12-22T17:54:44;11.70;1.40
316;DHT22;14128;48.686;9.738;2023-12-22T17:57:11;11.70;1.40
316;DHT22;14128;48.686;9.738;2023-12-22T17:59:39;11.70;1.40
316;DHT22;14128;48.686;9.738;2023-12-22T18:02:07;11.70;1.40
316;DHT22;14128;48.686;9.738;2023-12-22T18:04:36;11.70;1.40
316;DHT22;14128;48.686;9.738;2023-12-22T18:07:03;11.70;1.40
316;DHT22;14128;48.686;9.738;2023-12-22T18:09:31;11.80;1.40
316;DHT22;14128;48.686;9.738;2023-12-22T18:11:58;11.80;1.40
316;DHT22;14128;48.686;9.738;2023-12-22T18:14:25;11.80;1.40
316;DHT22;14128;48.686;9.738;2023-12-22T18:16:52;11.80;1.40
316;DHT22;14128;48.686;9.738;2023-12-22T18:19:19;11.90;1.40
316;DHT22;14128;48.686;9.738;2023-12-22T18:21:46;11.80;1.40
316;DHT22;14128;48.686;9.738;2023-12-22T18:24:13;12.00;1.40
316;DHT22;14128;48.686;9.738;2023-12-22T18:26:41;12.00;1.40
316;DHT22;14128;48.686;9.738;2023-12-22T18:29:08;12.10;1.40
316;DHT22;14128;48.686;9.738;2023-12-22T18:31:35;11.50;1.40
316;DHT22;14128;48.686;9.738;2023-12-22T18:34:03;11.60;1.40
316;DHT22;14128;48.686;9.738;2023-12-22T18:36:30;11.60;1.40
316;DHT22;14128;48.686;9.738;2023-12-22T18:38:57;11.50;1.40
316;DHT22;14128;48.686;9.738;2023-12-22T18:41:24;11.50;1.40
316;DHT22;14128;48.686;9.738;2023-12-22T18:43:52;11.50;1.40
316;DHT22;14128;48.686;9.738;2023-12-22T18:46:19;11.50;1.40
316;DHT22;14128;48.686;9.738;2023-12-22T18:48:46;11.50;1.40
316;DHT22;14128;48.686;9.738;2023-12-22T18:51:13;11.50;1.40
316;DHT22;14128;48.686;9.738;2023-12-22T18:53:41;11.50;1.40
316;DHT22;14128;48.686;9.738;2023-12-22T18:56:07;11.50;1.40
316;DHT22;14128;48.686;9.738;2023-12-22T18:58:35;11.50;1.40
316;DHT22;14128;48.686;9.738;2023-12-22T19:01:06;11.50;1.40
316;DHT22;14128;48.686;9.738;2023-12-22T19:03:33;11.60;1.40
316;DHT22;14128;48.686;9.738;2023-12-22T19:06:00;11.60;1.40
316;DHT22;14128;48.686;9.738;2023-12-22T19:08:27;11.60;1.40
316;DHT22;14128;48.686;9.738;2023-12-22T19:10:53;11.70;1.40
316;DHT22;14128;48.686;9.738;2023-12-22T19:13:20;11.70;1.40
316;DHT22;14128;48.686;9.738;2023-12-22T19:15:47;11.80;1.40
316;DHT22;14128;48.686;9.738;2023-12-22T19:18:16;11.90;1.40
316;DHT22;14128;48.686;9.738;2023-12-22T19:20:43;12.00;1.40
316;DHT22;14128;48.686;9.738;2023-12-22T19:23:10;12.00;1.40
316;DHT22;14128;48.686;9.738;2023-12-22T19:25:37;12.00;1.40
316;DHT22;14128;48.686;9.738;2023-12-22T19:28:04;11.90;1.40
316;DHT22;14128;48.686;9.738;2023-12-22T19:30:31;12.00;1.40
316;DHT22;14128;48.686;9.738;2023-12-22T19:32:59;12.00;1.40
316;DHT22;14128;48.686;9.738;2023-12-22T19:35:28;11.90;1.40
316;DHT22;14128;48.686;9.738;2023-12-22T19:37:55;11.90;1.40
316;DHT22;14128;48.686;9.738;2023-12-22T19:40:22;11.90;1.40
316;DHT22;14128;48.686;9.738;2023-12-22T19:42:48;11.80;1.40
316;DHT22;14128;48.686;9.738;2023-12-22T19:45:15;11.70;1.40
316;DHT22;14128;48.686;9.738;2023-12-22T19:47:42;11.80;1.40
316;DHT22;14128;48.686;9.738;2023-12-22T19:50:09;11.80;1.40
316;DHT22;14128;48.686;9.738;2023-12-22T19:52:37;11.70;1.40
316;DHT22;14128;48.686;9.738;2023-12-22T19:55:05;11.80;1.40
316;DHT22;14128;48.686;9.738;2023-12-22T19:57:32;11.80;1.40
316;DHT22;14128;48.686;9.738;2023-12-22T19:59:59;11.80;1.40
316;DHT22;14128;48.686;9.738;2023-12-22T20:02:26;11.80;1.40
316;DHT22;14128;48.686;9.738;2023-12-22T20:04:53;11.80;1.40
316;DHT22;14128;48.686;9.738;2023-12-22T20:07:20;11.90;1.40
316;DHT22;14128;48.686;9.738;2023-12-22T20:09:48;11.90;1.40
316;DHT22;14128;48.686;9.738;2023-12-22T20:12:15;11.80;1.40
316;DHT22;14128;48.686;9.738;2023-12-22T20:14:42;11.80;1.40
316;DHT22;14128;48.686;9.738;2023-12-22T20:17:09;11.80;1.40
316;DHT22;14128;48.686;9.738;2023-12-22T20:19:36;11.80;1.40
316;DHT22;14128;48.686;9.738;2023-12-22T20:22:03;11.80;1.40
316;DHT22;14128;48.686;9.738;2023-12-22T20:24:30;11.80;1.40
316;DHT22;14128;48.686;9.738;2023-12-22T20:26:58;11.70;1.40
316;DHT22;14128;48.686;9.738;2023-12-22T20:29:25;11.70;1.40
316;DHT22;14128;48.686;9.738;2023-12-22T20:31:52;11.80;1.40
316;DHT22;14128;48.686;9.738;2023-12-22T20:34:19;11.70;1.40
316;DHT22;14128;48.686;9.738;2023-12-22T20:36:46;11.80;1.40
316;DHT22;14128;48.686;9.738;2023-12-22T20:39:13;11.70;1.40
316;DHT22;14128;48.686;9.738;2023-12-22T20:41:39;11.80;1.40
316;DHT22;14128;48.686;9.738;2023-12-22T20:44:08;11.60;1.40
316;DHT22;14128;48.686;9.738;2023-12-22T20:46:35;11.70;1.40
316;DHT22;14128;48.686;9.738;2023-12-22T20:49:01;11.70;1.40
316;DHT22;14128;48.686;9.738;2023-12-22T20:51:29;11.70;1.40
316;DHT22;14128;48.686;9.738;2023-12-22T20:53:57;11.60;1.40
316;DHT22;14128;48.686;9.738;2023-12-22T20:56:24;11.70;1.40
316;DHT22;14128;48.686;9.738;2023-12-22T20:58:51;11.70;1.40
316;DHT22;14128;48.686;9.738;2023-12-22T21:01:19;11.70;1.40
316;DHT22;14128;48.686;9.738;2023-12-22T21:03:46;11.70;1.40
316;DHT22;14128;48.686;9.738;2023-12-22T21:06:13;11.70;1.40
316;DHT22;14128;48.686;9.738;2023-12-22T21:08:40;11.10;1.40
316;DHT22;14128;48.686;9.738;2023-12-22T21:11:07;10.20;1.40
316;DHT22;14128;48.686;9.738;2023-12-22T21:13:34;10.00;1.40
316;DHT22;14128;48.686;9.738;2023-12-22T21:16:04;9.90;1.40
316;DHT22;14128;48.686;9.738;2023-12-22T21:18:33;9.70;1.40
316;DHT22;14128;48.686;9.738;2023-12-22T21:21:03;9.70;1.40
316;DHT22;14128;48.686;9.738;2023-12-22T21:23:30;9.70;1.40
316;DHT22;14128;48.686;9.738;2023-12-22T21:25:56;9.70;1.40
316;DHT22;14128;48.686;9.738;2023-12-22T21:28:24;9.80;1.40
316;DHT22;14128;48.686;9.738;2023-12-22T21:30:51;9.70;1.40
316;DHT22;14128;48.686;9.738;2023-12-22T21:33:18;9.80;1.40
316;DHT22;14128;48.686;9.738;2023-12-22T21:35:46;9.80;1.40
316;DHT22;14128;48.686;9.738;2023-12-22T21:38:13;9.70;1.40
316;DHT22;14128;48.686;9.738;2023-12-22T21:40:40;9.60;1.40
316;DHT22;14128;48.686;9.738;2023-12-22T21:43:06;9.60;1.40
316;DHT22;14128;48.686;9.738;2023-12-22T21:45:33;9.60;1.40
316;DHT22;14128;48.686;9.738;2023-12-22T21:48:00;9.50;1.40
316;DHT22;14128;48.686;9.738;2023-12-22T21:50:27;9.50;1.40
316;DHT22;14128;48.686;9.738;2023-12-22T21:52:55;9.40;1.40
316;DHT22;14128;48.686;9.738;2023-12-22T21:55:23;8.40;1.40
316;DHT22;14128;48.686;9.738;2023-12-22T21:57:50;8.50;1.40
316;DHT22;14128;48.686;9.738;2023-12-22T22:00:17;8.50;1.40
316;DHT22;14128;48.686;9.738;2023-12-22T22:02:44;8.50;1.40
316;DHT22;14128;48.686;9.738;2023-12-22T22:05:11;8.50;1.40
316;DHT22;14128;48.686;9.738;2023-12-22T22:07:38;8.40;1.40
316;DHT22;14128;48.686;9.738;2023-12-22T22:10:07;8.40;1.40
316;DHT22;14128;48.686;9.738;2023-12-22T22:12:34;8.20;1.40
316;DHT22;14128;48.686;9.738;2023-12-22T22:15:01;8.10;1.40
316;DHT22;14128;48.686;9.738;2023-12-22T22:17:28;8.10;1.40
316;DHT22;14128;48.686;9.738;2023-12-22T22:19:55;8.10;1.40
316;DHT22;14128;48.686;9.738;2023-12-22T22:22:22;8.10;1.40
316;DHT22;14128;48.686;9.738;2023-12-22T22:24:48;8.00;1.40
316;DHT22;14128;48.686;9.738;2023-12-22T22:27:16;8.00;1.40
316;DHT22;14128;48.686;9.738;2023-12-22T22:29:43;8.00;1.40
316;DHT22;14128;48.686;9.738;2023-12-22T22:32:11;8.00;1.40
316;DHT22;14128;48.686;9.738;2023-12-22T22:34:37;8.00;1.40
316;DHT22;14128;48.686;9.738;2023-12-22T22:37:05;8.00;1.40
316;DHT22;14128;48.686;9.738;2023-12-22T22:39:32;7.90;1.40
316;DHT22;14128;48.686;9.738;2023-12-22T22:42:01;8.00;1.40
316;DHT22;14128;48.686;9.738;2023-12-22T22:44:29;7.90;1.40
316;DHT22;14128;48.686;9.738;2023-12-22T22:46:57;8.00;1.40
316;DHT22;14128;48.686;9.738;2023-12-22T22:49:23;8.00;1.40
316;DHT22;14128;48.686;9.738;2023-12-22T22:51:50;8.00;1.40
316;DHT22;14128;48.686;9.738;2023-12-22T22:54:17;8.00;1.40
316;DHT22;14128;48.686;9.738;2023-12-22T22:56:44;7.90;1.40
316;DHT22;14128;48.686;9.738;2023-12-22T22:59:11;8.00;1.40
316;DHT22;14128;48.686;9.738;2023-12-22T23:01:39;8.00;1.40
316;DHT22;14128;48.686;9.738;2023-12-22T23:04:06;8.00;1.40
316;DHT22;14128;48.686;9.738;2023-12-22T23:06:32;8.00;1.40
316;DHT22;14128;48.686;9.738;2023-12-22T23:08:59;8.00;1.40
316;DHT22;14128;48.686;9.738;2023-12-22T23:11:27;8.00;1.40
316;DHT22;14128;48.686;9.738;2023-12-22T23:13:53;8.00;1.40
316;DHT22;14128;48.686;9.738;2023-12-22T23:16:20;7.90;1.40
316;DHT22;14128;48.686;9.738;2023-12-22T23:18:48;8.00;1.40
316;DHT22;14128;48.686;9.738;2023-12-22T23:21:15;8.00;1.40
316;DHT22;14128;48.686;9.738;2023-12-22T23:23:42;8.00;1.40
316;DHT22;14128;48.686;9.738;2023-12-22T23:26:09;8.00;1.40
316;DHT22;14128;48.686;9.738;2023-12-22T23:28:36;8.00;1.40
316;DHT22;14128;48.686;9.738;2023-12-22T23:31:03;7.90;1.40
316;DHT22;14128;48.686;9.738;2023-12-22T23:33:30;8.00;1.40
316;DHT22;14128;48.686;9.738;2023-12-22T23:35:58;8.00;1.40
316;DHT22;14128;48.686;9.738;2023-12-22T23:38:25;8.00;1.40
316;DHT22;14128;48.686;9.738;2023-12-22T23:40:52;8.00;1.40
316;DHT22;14128;48.686;9.738;2023-12-22T23:43:19;8.00;1.40
316;DHT22;14128;48.686;9.738;2023-12-22T23:45:46;8.00;1.40
316;DHT22;14128;48.686;9.738;2023-12-22T23:48:13;8.00;1.40
316;DHT22;14128;48.686;9.738;2023-12-22T23:50:40;8.00;1.40
316;DHT22;14128;48.686;9.738;2023-12-22T23:53:08;8.00;1.40
316;DHT22;14128;48.686;9.738;2023-12-22T23:55:35;7.90;1.40
316;DHT22;14128;48.686;9.738;2023-12-22T23:58:01;7.90;1.40
